Time;durP1;ratioP1;P1;durP2;ratioP2;P2;SDS_P1;SDS_P2;PMS_P1;PMS_P2;Temp;Humidity;BMP_temperature;BMP_pressure;BME280_temperature;BME280_humidity;BME280_pressure;Samples;Min_cycle;Max_cycle;Signal;HPM_P1;HPM_P2
2022/11/26 00:00:30;;;;;;;11.95;7.42;;;;;;;7.06;76.10;101716.01;1671090;84;21071;-59
2022/11/26 00:02:57;;;;;;;8.20;7.40;;;;;;;7.05;76.15;101722.02;1681938;84;21046;-58
2022/11/26 00:05:24;;;;;;;8.05;7.25;;;;;;;7.05;76.15;101724.61;1681376;84;21103;-58
2022/11/26 00:07:56;;;;;;;8.58;7.67;;;;;;;7.04;76.23;101722.47;1673431;84;21075;-59
2022/11/26 00:10:25;;;;;;;;;;;;;;;7.05;76.07;101720.72;1686752;84;21488;-59
2022/11/26 00:12:52;;;;;;;9.75;8.15;;;;;;;7.03;75.89;101722.44;1684172;84;20443;-59
2022/11/26 00:15:26;;;;;;;10.38;8.15;;;;;;;7.01;75.80;101730.61;1680064;84;21600;-58
2022/11/26 00:17:53;;;;;;;9.25;8.03;;;;;;;6.99;75.90;101732.32;1510470;93;21110;-58
2022/11/26 00:20:24;;;;;;;9.85;7.80;;;;;;;7.00;75.71;101728.89;1504068;94;21215;-59
2022/11/26 00:22:53;;;;;;;9.05;7.90;;;;;;;6.98;75.79;101737.08;1507589;93;21649;-58
2022/11/26 00:25:25;;;;;;;9.08;8.18;;;;;;;6.98;75.57;101739.66;1498885;93;21619;-58
2022/11/26 00:27:53;;;;;;;9.43;8.18;;;;;;;6.97;75.74;101744.38;1497969;93;21129;-59
2022/11/26 00:30:24;;;;;;;10.72;8.88;;;;;;;6.96;75.97;101746.55;1513525;94;21115;-58
2022/11/26 00:32:52;;;;;;;11.48;9.10;;;;;;;6.96;75.83;101744.83;1514653;94;21239;-59
2022/11/26 00:35:19;;;;;;;10.72;8.70;;;;;;;6.95;75.76;101743.50;1514805;93;21120;-58
2022/11/26 00:37:48;;;;;;;8.50;7.62;;;;;;;6.92;75.54;101749.96;1499434;93;21132;-58
2022/11/26 00:40:18;;;;;;;9.88;8.43;;;;;;;6.91;75.56;101758.14;1510353;93;21140;-58
2022/11/26 00:42:45;;;;;;;9.18;8.23;;;;;;;6.89;75.74;101757.68;1507355;93;21573;-58
2022/11/26 00:45:24;;;;;;;10.00;8.53;;;;;;;6.89;75.69;101756.39;1498395;93;21658;-58
2022/11/26 00:47:51;;;;;;;8.53;7.00;;;;;;;6.92;75.87;101759.89;1509492;93;21670;-59
2022/11/26 00:50:20;;;;;;;9.10;8.18;;;;;;;6.92;75.33;101752.55;1507507;93;21146;-58
2022/11/26 00:52:52;;;;;;;9.80;8.40;;;;;;;6.90;75.62;101762.02;1519808;91;21070;-58
2022/11/26 00:55:24;;;;;;;11.50;8.50;;;;;;;6.91;75.58;101766.32;1533270;92;21108;-58
2022/11/26 00:57:51;;;;;;;9.18;8.18;;;;;;;6.91;75.57;101779.26;1522960;91;21166;-58
2022/11/26 01:00:21;;;;;;;9.63;8.50;;;;;;;6.93;75.47;101777.55;1521162;92;21149;-58
2022/11/26 01:02:48;;;;;;;9.55;7.95;;;;;;;6.93;75.60;101778.42;1504101;94;21079;-59
2022/11/26 01:05:15;;;;;;;10.30;8.38;;;;;;;6.91;75.32;101779.26;1529592;92;21119;-58
2022/11/26 01:07:43;;;;;;;8.85;7.65;;;;;;;6.90;75.12;101785.30;1538705;92;21120;-58
2022/11/26 01:10:21;;;;;;;9.73;8.73;;;;;;;6.87;75.11;101777.08;1529791;92;21561;-58
2022/11/26 01:12:50;;;;;;;9.35;8.38;;;;;;;6.90;75.31;101789.18;1491499;95;21107;-58
2022/11/26 01:15:18;;;;;;;8.60;7.70;;;;;;;6.88;74.88;101787.88;1589673;87;21048;-59
2022/11/26 01:17:44;;;;;;;8.93;8.03;;;;;;;6.88;74.73;101788.30;1620839;87;21081;-58
2022/11/26 01:20:24;;;;;;;10.15;8.38;;;;;;;6.87;74.81;101796.90;1623845;87;21613;-59
2022/11/26 01:22:51;;;;;;;10.82;8.63;;;;;;;6.86;74.59;101791.30;1595897;89;21098;-59
2022/11/26 01:25:18;;;;;;;10.23;8.93;;;;;;;6.84;74.33;101793.00;1611117;87;21539;-58
2022/11/26 01:27:44;;;;;;;11.28;8.93;;;;;;;6.83;74.61;101788.67;1571545;89;21105;-57
2022/11/26 01:30:17;;;;;;;10.20;8.83;;;;;;;6.84;74.68;101784.80;1585232;90;21097;-58
2022/11/26 01:32:43;;;;;;;10.90;9.38;;;;;;;6.84;74.78;101787.38;1504359;93;21631;-58
2022/11/26 01:35:11;;;;;;;9.60;8.58;;;;;;;6.86;74.47;101792.59;1528425;92;21096;-58
2022/11/26 01:37:37;;;;;;;11.35;8.98;;;;;;;6.83;74.39;101799.02;1514610;93;21619;-58
2022/11/26 01:40:39;;;;;;;9.58;8.25;;;;;;;6.81;74.35;101794.25;1515907;93;21127;-58
2022/11/26 01:43:23;;;;;;;10.13;8.25;;;;;;;6.81;74.52;101803.31;1522319;93;21129;-58
2022/11/26 01:45:49;;;;;;;12.05;8.83;;;;;;;6.81;74.36;101794.25;1540082;92;21209;-58
2022/11/26 01:48:32;;;;;;;10.15;8.88;;;;;;;6.80;74.40;101799.84;1534140;92;21581;-58
2022/11/26 01:51:09;;;;;;;8.88;7.97;;;;;;;6.80;74.32;101802.43;1559364;90;21083;-58
2022/11/26 01:53:47;;;;;;;9.00;8.10;;;;;;;6.80;74.29;101793.83;1539331;92;21139;-58
2022/11/26 01:56:28;;;;;;;8.93;7.62;;;;;;;6.80;74.03;101808.06;1501213;94;21123;-59
2022/11/26 01:58:59;;;;;;;10.60;8.93;;;;;;;6.80;73.92;101802.43;1498243;94;21116;-58
2022/11/26 02:01:27;;;;;;;10.00;8.80;;;;;;;6.81;73.86;101808.48;1520270;93;21110;-58
2022/11/26 02:04:08;;;;;;;9.75;8.33;;;;;;;6.81;73.80;101809.77;1515935;93;21155;-58
2022/11/26 02:06:36;;;;;;;9.83;8.08;;;;;;;6.82;74.13;101815.41;1514438;93;21133;-58
2022/11/26 02:09:06;;;;;;;10.32;8.30;;;;;;;6.82;73.95;101810.23;1562337;91;21121;-58
2022/11/26 02:11:32;;;;;;;8.80;7.90;;;;;;;6.81;74.16;101824.00;1564717;91;21136;-59
2022/11/26 02:14:08;;;;;;;9.68;8.68;;;;;;;6.80;73.90;101836.52;1563873;90;21545;-58
2022/11/26 02:16:44;;;;;;;9.30;7.87;;;;;;;6.81;73.89;101844.70;1539359;92;21147;-58
2022/11/26 02:19:44;;;;;;;10.82;8.88;;;;;;;6.80;73.37;101841.69;1518222;92;21136;-58
2022/11/26 02:22:32;;;;;;;9.15;8.25;;;;;;;6.78;73.29;101840.34;1514132;92;21157;-58
2022/11/26 02:25:10;;;;;;;8.63;7.60;;;;;;;6.79;73.53;101837.34;1498663;93;21127;-59
2022/11/26 02:28:04;;;;;;;10.13;8.73;;;;;;;6.81;74.12;101844.70;1476688;93;21075;-59
2022/11/26 02:30:36;;;;;;;9.63;8.65;;;;;;;6.86;74.38;101859.86;1512703;92;21188;-59
2022/11/26 02:33:17;;;;;;;10.60;9.50;;;;;;;6.90;74.08;101842.22;1481259;94;21131;-59
2022/11/26 02:35:47;;;;;;;10.50;9.17;;;;;;;6.91;73.91;101851.70;1477171;96;21130;-58
2022/11/26 02:38:20;;;;;;;10.32;9.25;;;;;;;6.91;73.63;101860.76;1489131;93;21174;-58
2022/11/26 02:40:47;;;;;;;10.10;9.10;;;;;;;6.89;73.37;101855.99;1476840;96;21118;-59
2022/11/26 02:43:15;;;;;;;11.30;10.10;;;;;;;6.88;73.21;101867.21;1485851;96;21162;-59
2022/11/26 02:45:55;;;;;;;11.65;9.90;;;;;;;6.87;73.33;101861.58;1485190;96;21147;-58
2022/11/26 02:48:24;;;;;;;11.57;10.28;;;;;;;6.89;73.34;101866.34;1484021;95;21145;-59
2022/11/26 02:50:55;;;;;;;11.10;9.63;;;;;;;6.88;72.87;101865.92;1481687;95;21656;-58
2022/11/26 02:53:25;;;;;;;12.43;9.40;;;;;;;6.85;72.92;101874.92;1482622;94;21189;-58
2022/11/26 02:56:02;;;;;;;10.13;8.90;;;;;;;6.84;73.05;101870.61;1477837;96;21133;-59
2022/11/26 02:58:30;;;;;;;11.95;9.93;;;;;;;6.85;73.21;101878.80;1470199;96;21126;-59
2022/11/26 03:00:56;;;;;;;10.82;9.53;;;;;;;6.84;73.16;101870.61;1465789;96;22632;-58
2022/11/26 03:03:26;;;;;;;10.68;9.55;;;;;;;6.84;72.82;101877.09;1499126;94;21155;-58
2022/11/26 03:05:56;;;;;;;11.83;10.08;;;;;;;6.83;72.94;101880.50;1472551;95;21566;-58
2022/11/26 03:08:23;;;;;;;11.33;9.90;;;;;;;6.83;72.68;101888.27;1454150;98;21097;-58
2022/11/26 03:10:50;;;;;;;11.25;9.90;;;;;;;6.82;72.62;101899.48;1476613;95;21156;-58
2022/11/26 03:13:16;;;;;;;11.63;10.32;;;;;;;6.82;72.79;101900.77;1505728;94;21128;-59
2022/11/26 03:15:43;;;;;;;11.48;9.75;;;;;;;6.82;72.76;101904.20;1510464;94;21037;-59
2022/11/26 03:18:09;;;;;;;11.15;9.93;;;;;;;6.81;72.34;101909.37;1509008;92;21090;-58
2022/11/26 03:20:36;;;;;;;10.80;9.70;;;;;;;6.80;72.12;101905.06;1571758;90;21561;-59
2022/11/26 03:23:03;;;;;;;11.57;9.65;;;;;;;6.77;72.36;101917.95;1568117;90;21076;-58
2022/11/26 03:25:30;;;;;;;11.57;9.88;;;;;;;6.75;72.34;101919.64;1572896;90;21162;-58
2022/11/26 03:27:56;;;;;;;11.15;9.60;;;;;;;6.76;72.31;101915.77;1554433;90;21156;-59
2022/11/26 03:30:24;;;;;;;11.80;9.55;;;;;;;6.75;72.16;101919.64;1607883;86;21545;-59
2022/11/26 03:32:50;;;;;;;11.85;9.78;;;;;;;6.74;72.18;101921.80;1673210;84;21090;-59
2022/11/26 03:35:17;;;;;;;10.65;9.48;;;;;;;6.74;72.17;101924.39;1679256;84;21557;-59
2022/11/26 03:37:44;;;;;;;11.40;10.20;;;;;;;6.75;72.20;101916.64;1671693;84;21069;-58
2022/11/26 03:40:12;;;;;;;11.95;9.80;;;;;;;6.74;72.38;101918.77;1771528;80;21521;-59
2022/11/26 03:42:39;;;;;;;11.85;9.70;;;;;;;6.73;71.92;101921.34;1749867;80;21074;-59
2022/11/26 03:45:07;;;;;;;11.28;9.80;;;;;;;6.70;72.15;101914.41;1754864;80;21609;-59
2022/11/26 03:47:33;;;;;;;12.63;9.93;;;;;;;6.71;72.27;101906.23;1757699;80;21061;-59
2022/11/26 03:50:00;;;;;;;11.18;9.90;;;;;;;6.68;72.28;101912.68;1761351;80;21078;-59
2022/11/26 03:52:26;;;;;;;12.23;9.68;;;;;;;6.68;72.23;101913.52;1753934;80;21518;-58
2022/11/26 03:54:53;;;;;;;15.15;10.75;;;;;;;6.69;72.46;101918.28;1757089;80;21050;-58
2022/11/26 03:57:21;;;;;;;10.85;9.73;;;;;;;6.69;72.47;101918.28;1761911;80;21016;-58
2022/11/26 03:59:47;;;;;;;12.85;10.65;;;;;;;6.69;72.78;101924.75;1766300;80;21585;-59
2022/11/26 04:02:14;;;;;;;12.93;10.50;;;;;;;6.71;72.34;101919.16;1756934;80;21086;-59
2022/11/26 04:04:40;;;;;;;12.10;10.25;;;;;;;6.67;72.32;101929.03;1759282;80;21484;-58
2022/11/26 04:07:07;;;;;;;12.33;10.40;;;;;;;6.67;72.69;101929.03;1752112;80;21076;-59
2022/11/26 04:09:34;;;;;;;14.07;11.55;;;;;;;6.66;72.70;101924.72;1763587;80;21086;-58
2022/11/26 04:12:00;;;;;;;11.18;9.43;;;;;;;6.64;72.82;101930.27;1767763;80;21543;-58
2022/11/26 04:14:27;;;;;;;11.35;9.88;;;;;;;6.64;72.85;101931.56;1747428;80;21045;-58
2022/11/26 04:16:54;;;;;;;11.50;10.05;;;;;;;6.64;72.97;101936.32;1763642;80;21034;-59
2022/11/26 04:19:20;;;;;;;11.50;10.18;;;;;;;6.65;73.00;101944.53;1755593;81;21133;-58
2022/11/26 04:21:48;;;;;;;11.75;9.33;;;;;;;6.66;72.96;101942.83;1747450;80;21002;-59
2022/11/26 04:24:15;;;;;;;11.85;9.58;;;;;;;6.66;72.99;101936.36;1751729;80;21113;-59
2022/11/26 04:26:41;;;;;;;12.30;10.35;;;;;;;6.66;72.83;101946.70;1751826;80;21323;-58
2022/11/26 04:29:08;;;;;;;12.43;10.43;;;;;;;6.66;72.83;101942.83;1748645;81;21062;-61
2022/11/26 04:31:35;;;;;;;12.40;10.28;;;;;;;6.65;72.76;101946.25;1760263;81;21007;-58
2022/11/26 04:34:01;;;;;;;13.22;10.45;;;;;;;6.64;72.92;101954.84;1751764;80;21081;-59
2022/11/26 04:36:28;;;;;;;13.78;10.00;;;;;;;6.63;72.74;101948.82;1754604;80;21547;-58
2022/11/26 04:38:57;;;;;;;12.78;10.25;;;;;;;6.62;72.62;101960.41;1751310;80;21057;-58
2022/11/26 04:41:24;;;;;;;11.53;10.32;;;;;;;6.61;72.92;101959.57;1751487;81;21545;-60
2022/11/26 04:43:51;;;;;;;12.10;10.63;;;;;;;6.64;72.80;101974.23;1750802;80;21005;-59
2022/11/26 04:46:18;;;;;;;13.62;10.50;;;;;;;6.64;72.84;101980.70;1759179;80;21471;-59
2022/11/26 04:48:44;;;;;;;11.10;9.83;;;;;;;6.64;72.86;101981.99;1752045;80;21034;-59
2022/11/26 04:51:11;;;;;;;11.90;10.13;;;;;;;6.63;72.86;101988.03;1753162;81;21532;-60
2022/11/26 04:53:37;;;;;;;11.83;9.95;;;;;;;6.64;72.93;101996.22;1762902;80;21078;-59
2022/11/26 04:56:05;;;;;;;12.28;9.90;;;;;;;6.69;73.01;101997.17;1765033;80;21553;-59
2022/11/26 04:58:33;;;;;;;11.60;10.15;;;;;;;6.70;72.83;101998.47;1753457;80;21066;-59
2022/11/26 05:01:00;;;;;;;11.43;10.08;;;;;;;6.69;72.86;101993.28;1745791;81;21038;-59
2022/11/26 05:03:27;;;;;;;13.62;10.60;;;;;;;6.69;72.69;101998.45;1770308;80;21595;-59
2022/11/26 05:05:54;;;;;;;11.03;9.73;;;;;;;6.69;72.46;101992.87;1751957;80;20990;-59
2022/11/26 05:08:21;;;;;;;12.65;10.35;;;;;;;6.68;72.25;102004.50;1760368;80;21065;-60
2022/11/26 05:10:53;;;;;;;13.08;11.12;;;;;;;6.65;72.24;102003.14;1758870;80;21207;-59
2022/11/26 05:13:20;;;;;;;;;;;;;;;6.65;72.40;102008.31;1760799;80;21046;-60
2022/11/26 05:15:46;;;;;;;13.30;11.15;;;;;;;6.67;72.45;102009.20;1758708;80;20376;-59
2022/11/26 05:18:13;;;;;;;11.45;10.05;;;;;;;6.67;72.50;102007.91;1755161;80;21096;-59
2022/11/26 05:20:40;;;;;;;13.35;10.88;;;;;;;6.69;72.70;102015.27;1744709;81;21097;-61
2022/11/26 05:23:06;;;;;;;13.80;10.63;;;;;;;6.69;72.44;102011.39;1765999;80;21483;-59
2022/11/26 05:25:33;;;;;;;12.13;10.40;;;;;;;6.69;72.35;102010.09;1751392;80;21059;-59
2022/11/26 05:28:00;;;;;;;11.43;10.10;;;;;;;6.68;72.23;102003.20;1772291;80;21514;-60
2022/11/26 05:30:26;;;;;;;11.83;10.20;;;;;;;6.66;72.21;102005.74;1748487;80;21032;-58
2022/11/26 05:32:53;;;;;;;10.10;9.10;;;;;;;6.66;72.32;102010.07;1768517;80;21077;-60
2022/11/26 05:35:20;;;;;;;11.78;9.98;;;;;;;6.68;72.56;102013.55;1759856;80;21046;-60
2022/11/26 05:37:47;;;;;;;12.58;10.30;;;;;;;6.69;72.41;102010.09;1757125;80;21533;-60
2022/11/26 05:40:14;;;;;;;12.82;10.88;;;;;;;6.69;72.45;102018.73;1768654;80;21081;-58
2022/11/26 05:42:40;;;;;;;11.93;9.75;;;;;;;6.70;72.39;102029.95;1745092;80;21034;-59
2022/11/26 05:45:09;;;;;;;11.28;10.05;;;;;;;6.71;72.46;102023.92;1746753;81;20994;-59
2022/11/26 05:47:36;;;;;;;12.13;9.83;;;;;;;6.70;72.22;102032.55;1765797;80;21506;-60
2022/11/26 05:50:03;;;;;;;13.28;9.30;;;;;;;6.69;72.19;102033.37;1754387;81;21027;-59
2022/11/26 05:52:31;;;;;;;13.18;10.35;;;;;;;6.71;72.26;102045.49;1763255;80;20998;-58
2022/11/26 05:54:58;;;;;;;12.03;9.73;;;;;;;6.72;72.05;102042.48;1755229;80;21082;-60
2022/11/26 05:57:25;;;;;;;11.10;9.28;;;;;;;6.71;71.98;102052.38;1762328;80;21030;-59
2022/11/26 05:59:51;;;;;;;12.18;10.40;;;;;;;6.69;72.05;102043.72;1760046;80;20999;-58
2022/11/26 06:02:18;;;;;;;10.98;9.35;;;;;;;6.71;72.27;102052.38;1759420;80;21088;-59
2022/11/26 06:04:45;;;;;;;10.80;9.63;;;;;;;6.72;72.35;102056.72;1759086;80;21046;-59
2022/11/26 06:07:13;;;;;;;10.85;8.75;;;;;;;6.72;72.02;102062.73;1758380;80;21041;-60
2022/11/26 06:09:39;;;;;;;11.88;9.88;;;;;;;6.70;71.94;102066.17;1745208;80;21097;-60
2022/11/26 06:12:06;;;;;;;11.93;9.93;;;;;;;6.68;71.66;102067.86;1762359;80;21037;-59
2022/11/26 06:14:33;;;;;;;12.10;10.38;;;;;;;6.67;71.90;102079.05;1754044;80;21116;-60
2022/11/26 06:17:01;;;;;;;11.35;9.68;;;;;;;6.66;71.95;102070.85;1767184;80;21022;-59
2022/11/26 06:19:27;;;;;;;12.53;9.28;;;;;;;6.67;72.17;102068.70;1760733;80;21034;-59
2022/11/26 06:21:54;;;;;;;10.40;9.25;;;;;;;6.68;72.04;102076.92;1750476;80;21589;-59
2022/11/26 06:24:20;;;;;;;11.63;9.30;;;;;;;6.68;71.89;102087.27;1751390;81;21514;-59
2022/11/26 06:26:47;;;;;;;13.70;10.23;;;;;;;6.68;72.11;102087.27;1762863;80;21046;-59
2022/11/26 06:29:13;;;;;;;12.30;10.23;;;;;;;6.69;71.89;102091.57;1762465;80;20991;-60
2022/11/26 06:31:40;;;;;;;12.47;9.50;;;;;;;6.70;71.98;102095.91;1747180;80;21026;-59
2022/11/26 06:34:06;;;;;;;12.00;9.75;;;;;;;6.72;71.79;102098.10;1752144;81;21080;-58
2022/11/26 06:36:35;;;;;;;12.47;9.95;;;;;;;6.72;71.85;102103.27;1747090;80;20970;-59
2022/11/26 06:39:01;;;;;;;11.57;10.38;;;;;;;6.71;71.71;102106.69;1757223;80;21058;-59
2022/11/26 06:41:29;;;;;;;10.93;9.68;;;;;;;6.72;71.54;102108.45;1756689;80;21021;-59
2022/11/26 06:43:55;;;;;;;12.30;10.53;;;;;;;6.69;71.58;102111.85;1769407;80;21006;-59
2022/11/26 06:46:22;;;;;;;11.78;10.23;;;;;;;6.67;71.63;102110.08;1752303;80;21026;-59
2022/11/26 06:48:48;;;;;;;11.25;10.03;;;;;;;6.67;71.82;102115.25;1756943;80;21116;-58
2022/11/26 06:51:19;;;;;;;11.90;10.65;;;;;;;6.69;71.64;102108.38;1767840;80;21022;-58
2022/11/26 06:53:45;;;;;;;11.08;9.75;;;;;;;6.71;71.59;102106.69;1747771;81;21027;-59
2022/11/26 06:56:14;;;;;;;12.35;10.55;;;;;;;6.71;71.78;102113.16;1729924;82;21510;-60
2022/11/26 06:58:43;;;;;;;11.75;9.95;;;;;;;6.72;71.76;102111.87;1752474;80;21029;-59
2022/11/26 07:01:12;;;;;;;11.88;10.50;;;;;;;6.75;71.97;102111.06;1755214;80;21475;-59
2022/11/26 07:03:39;;;;;;;11.28;9.60;;;;;;;6.76;71.92;102106.35;1753097;81;21013;-58
2022/11/26 07:06:24;;;;;;;10.90;9.48;;;;;;;6.78;71.81;102114.56;1753329;80;21363;-59
2022/11/26 07:08:52;;;;;;;10.32;9.03;;;;;;;6.77;72.00;102115.84;1744992;80;21061;-59
2022/11/26 07:11:19;;;;;;;10.80;9.38;;;;;;;6.76;71.03;102115.41;1755619;80;21062;-58
2022/11/26 07:13:46;;;;;;;10.45;9.25;;;;;;;6.73;71.25;102118.81;1775329;80;21026;-59
2022/11/26 07:16:14;;;;;;;10.18;8.83;;;;;;;6.73;71.51;102121.81;1758336;80;21105;-59
2022/11/26 07:18:41;;;;;;;10.88;8.50;;;;;;;6.72;71.30;102129.14;1752824;80;21069;-59
2022/11/26 07:21:11;;;;;;;12.13;9.68;;;;;;;6.73;71.38;102124.39;1770520;80;21026;-58
2022/11/26 07:23:38;;;;;;;11.90;9.40;;;;;;;6.72;71.21;102120.94;1682059;83;21065;-58
2022/11/26 07:26:05;;;;;;;9.65;8.40;;;;;;;6.72;71.23;102122.23;1698931;84;21046;-58
2022/11/26 07:28:32;;;;;;;12.13;9.25;;;;;;;6.71;71.09;102124.80;1692076;83;21094;-59
2022/11/26 07:31:06;;;;;;;9.40;8.33;;;;;;;6.71;71.29;102122.21;1692659;84;21058;-58
2022/11/26 07:33:33;;;;;;;11.15;8.93;;;;;;;6.70;71.30;102120.48;1696275;83;21809;-58
2022/11/26 07:36:00;;;;;;;9.58;8.55;;;;;;;6.71;71.30;102122.21;1680233;83;21109;-58
2022/11/26 07:38:28;;;;;;;10.58;8.80;;;;;;;6.74;71.49;102126.16;1676740;83;21056;-58
2022/11/26 07:40:57;;;;;;;9.43;8.45;;;;;;;6.76;71.43;102122.72;1690889;83;21076;-59
2022/11/26 07:43:23;;;;;;;9.38;8.43;;;;;;;6.80;71.54;102121.08;1697708;83;21152;-58
2022/11/26 07:45:50;;;;;;;9.83;7.70;;;;;;;6.82;70.98;102112.46;1687264;83;21055;-60
2022/11/26 07:48:16;;;;;;;12.13;8.53;;;;;;;6.83;70.84;102112.05;1694019;83;21072;-60
2022/11/26 07:50:44;;;;;;;10.58;9.05;;;;;;;6.86;71.02;102108.23;1704678;82;21076;-60
2022/11/26 07:53:12;;;;;;;9.05;8.15;;;;;;;6.88;70.83;102120.77;1716930;82;21037;-59
2022/11/26 07:55:39;;;;;;;9.25;8.13;;;;;;;6.85;70.83;102120.70;1696649;82;22303;-59
2022/11/26 07:58:06;;;;;;;9.28;8.18;;;;;;;6.84;70.91;102116.39;1648875;84;21074;-59
2022/11/26 08:00:33;;;;;;;11.20;9.15;;;;;;;6.83;70.87;102126.27;1703745;82;21117;-59
2022/11/26 08:02:59;;;;;;;10.32;8.80;;;;;;;6.82;70.93;102128.44;1682882;83;21093;-59
2022/11/26 08:05:26;;;;;;;11.00;8.43;;;;;;;6.83;71.07;102132.75;1695998;82;21239;-59
2022/11/26 08:07:53;;;;;;;10.25;8.63;;;;;;;6.85;71.04;102136.22;1704518;82;21078;-60
2022/11/26 08:10:19;;;;;;;9.08;8.15;;;;;;;6.84;70.99;102129.33;1688698;82;21686;-59
2022/11/26 08:12:46;;;;;;;11.03;9.28;;;;;;;6.82;70.94;102133.61;1690419;83;21563;-60
2022/11/26 08:15:13;;;;;;;11.65;8.45;;;;;;;6.83;70.89;102132.75;1708499;82;21058;-59
2022/11/26 08:17:40;;;;;;;10.23;8.73;;;;;;;6.83;70.84;102139.21;1689927;83;21051;-59
2022/11/26 08:20:08;;;;;;;11.60;9.10;;;;;;;6.84;70.75;102142.27;1696061;82;21048;-59
2022/11/26 08:22:35;;;;;;;9.00;7.83;;;;;;;6.83;70.91;102146.56;1722151;82;21034;-59
2022/11/26 08:25:02;;;;;;;11.10;8.88;;;;;;;6.83;71.03;102143.97;1723511;81;21209;-58
2022/11/26 08:27:32;;;;;;;10.13;8.38;;;;;;;6.86;71.02;102149.63;1719654;82;21107;-59
2022/11/26 08:29:58;;;;;;;9.90;8.35;;;;;;;6.87;70.87;102144.88;1743719;81;21015;-59
2022/11/26 08:32:25;;;;;;;8.80;7.92;;;;;;;6.89;70.91;102149.66;1754700;80;21034;-59
2022/11/26 08:34:51;;;;;;;9.40;8.40;;;;;;;6.90;70.99;102140.64;1757222;80;21018;-59
2022/11/26 08:37:18;;;;;;;7.90;7.12;;;;;;;6.93;70.70;102141.97;1751401;80;21493;-59
2022/11/26 08:39:44;;;;;;;9.85;8.35;;;;;;;6.91;70.72;102132.02;1755826;80;21074;-59
2022/11/26 08:42:12;;;;;;;8.30;7.50;;;;;;;6.91;70.65;102137.61;1763865;80;21080;-59
2022/11/26 08:44:39;;;;;;;8.18;7.37;;;;;;;6.88;70.57;102136.28;1756816;80;21008;-60
2022/11/26 08:47:06;;;;;;;8.43;7.53;;;;;;;6.87;70.83;102139.70;1756119;80;20995;-59
2022/11/26 08:49:32;;;;;;;9.03;7.65;;;;;;;6.90;71.11;102143.64;1751074;80;21038;-60
2022/11/26 08:51:59;;;;;;;8.60;7.70;;;;;;;6.93;71.10;102151.02;1761348;81;21070;-59
2022/11/26 08:54:26;;;;;;;9.03;8.00;;;;;;;6.94;70.99;102152.78;1759638;80;21073;-60
2022/11/26 08:56:54;;;;;;;7.85;7.05;;;;;;;6.95;70.76;102154.92;1766764;80;21510;-59
2022/11/26 08:59:23;;;;;;;7.78;6.87;;;;;;;6.95;70.84;102154.92;1743766;80;21083;-59
2022/11/26 09:01:49;;;;;;;7.85;6.97;;;;;;;6.97;70.56;102157.11;1765930;80;21042;-59
2022/11/26 09:04:16;;;;;;;8.33;7.25;;;;;;;6.98;70.52;102151.10;1746114;81;21082;-59
2022/11/26 09:06:42;;;;;;;10.48;7.75;;;;;;;7.00;70.31;102150.28;1754907;80;21083;-59
2022/11/26 09:09:12;;;;;;;9.00;7.87;;;;;;;7.02;70.19;102151.59;1758098;80;21026;-60
2022/11/26 09:11:57;;;;;;;7.65;6.87;;;;;;;7.03;70.18;102136.49;1746578;80;21005;-60
2022/11/26 09:14:26;;;;;;;7.30;6.60;;;;;;;7.02;70.42;102137.36;1740917;80;21065;-61
2022/11/26 09:16:53;;;;;;;9.88;7.40;;;;;;;7.04;70.08;102139.55;1759832;80;21047;-59
2022/11/26 09:19:20;;;;;;;8.33;7.30;;;;;;;7.04;70.38;102140.84;1752047;80;21029;-59
2022/11/26 09:21:47;;;;;;;7.40;6.60;;;;;;;7.05;70.11;102145.14;1759305;80;21482;-59
2022/11/26 09:24:13;;;;;;;7.33;6.62;;;;;;;7.06;70.06;102140.44;1752171;80;21033;-60
2022/11/26 09:26:40;;;;;;;7.50;6.50;;;;;;;7.07;69.93;102149.92;1750637;80;21509;-60
2022/11/26 09:29:06;;;;;;;7.37;6.20;;;;;;;7.08;69.96;102152.97;1760605;80;21157;-60
2022/11/26 09:31:34;;;;;;;6.70;6.00;;;;;;;7.10;69.75;102152.16;1756942;80;21046;-59
2022/11/26 09:34:01;;;;;;;6.70;5.90;;;;;;;7.12;69.58;102162.52;1756748;80;21016;-61
2022/11/26 09:36:29;;;;;;;6.33;5.72;;;;;;;7.15;69.45;102159.99;1767761;80;21030;-59
2022/11/26 09:38:58;;;;;;;6.67;5.75;;;;;;;7.14;69.08;102161.70;1721814;82;21157;-59
2022/11/26 09:42:07;;;;;;;6.08;5.47;;;;;;;7.15;68.92;102158.25;1756364;80;21038;-61
2022/11/26 09:45:01;;;;;;;6.75;6.05;;;;;;;7.14;68.96;102155.65;1761054;80;21038;-62
2022/11/26 09:47:38;;;;;;;6.35;5.70;;;;;;;7.14;68.83;102158.23;1716172;82;21016;-60
2022/11/26 09:50:14;;;;;;;7.17;6.37;;;;;;;7.13;69.08;102157.80;1679576;82;21621;-61
2022/11/26 09:52:58;;;;;;;6.65;5.92;;;;;;;7.12;68.76;102160.81;1699175;82;21168;-61
2022/11/26 09:55:37;;;;;;;6.10;5.47;;;;;;;7.11;68.62;102160.34;1675553;83;21556;-59
2022/11/26 09:58:36;;;;;;;6.58;5.87;;;;;;;7.14;68.69;102150.47;1720922;82;21017;-59
2022/11/26 10:01:04;;;;;;;6.42;5.83;;;;;;;7.18;68.81;102162.61;1708475;82;21039;-60
2022/11/26 10:03:33;;;;;;;6.55;5.87;;;;;;;7.20;68.49;102162.20;1765518;80;21034;-60
2022/11/26 10:06:22;;;;;;;6.42;5.37;;;;;;;7.17;68.76;102167.36;1752837;80;21015;-61
2022/11/26 10:09:18;;;;;;;7.62;6.05;;;;;;;7.21;68.69;102165.25;1748009;81;21676;-60
2022/11/26 10:12:14;;;;;;;6.05;5.35;;;;;;;7.24;69.06;102166.58;1758283;80;21578;-60
2022/11/26 10:14:56;;;;;;;6.87;5.62;;;;;;;7.27;69.10;102164.05;1747699;80;21041;-61
2022/11/26 10:17:37;;;;;;;6.40;5.67;;;;;;;7.30;68.71;102166.66;1762769;80;21031;-61
2022/11/26 10:20:18;;;;;;;6.95;5.70;;;;;;;7.28;68.74;102166.64;1760365;80;21006;-60
2022/11/26 10:23:14;;;;;;;6.50;5.83;;;;;;;7.29;68.64;102167.52;1751898;80;21651;-61
2022/11/26 10:25:50;;;;;;;7.17;6.47;;;;;;;7.29;68.48;102163.64;1749523;80;21573;-60
2022/11/26 10:28:30;;;;;;;8.25;6.53;;;;;;;7.33;68.67;102175.78;1748467;81;21033;-61
2022/11/26 10:31:01;;;;;;;6.80;6.10;;;;;;;7.35;68.38;102176.67;1749933;80;21054;-61
2022/11/26 10:33:32;;;;;;;8.33;6.12;;;;;;;7.34;68.44;102179.67;1709129;81;21077;-61
2022/11/26 10:35:59;;;;;;;7.87;5.95;;;;;;;7.36;68.37;102177.10;1724698;82;21088;-60
2022/11/26 10:38:26;;;;;;;8.93;7.05;;;;;;;7.37;68.29;102182.73;1725214;82;21069;-61
2022/11/26 10:40:52;;;;;;;6.67;5.95;;;;;;;7.37;68.28;102181.45;1720006;82;21010;-61
2022/11/26 10:43:23;;;;;;;7.15;6.05;;;;;;;7.39;68.34;102181.05;1723564;82;21041;-61
2022/11/26 10:45:54;;;;;;;7.50;6.17;;;;;;;7.43;68.14;102189.72;1708066;81;21035;-61
2022/11/26 10:48:27;;;;;;;7.58;5.58;;;;;;;7.41;68.16;102187.11;1719889;82;21002;-62
2022/11/26 10:51:12;;;;;;;5.42;4.90;;;;;;;7.40;68.38;102185.36;1702206;82;21066;-60
2022/11/26 10:53:54;;;;;;;6.20;5.00;;;;;;;7.44;67.93;102191.02;1711376;83;21534;-61
2022/11/26 10:56:25;;;;;;;5.97;5.37;;;;;;;7.43;67.66;102203.54;1710810;83;21045;-60
2022/11/26 10:58:52;;;;;;;5.87;5.28;;;;;;;7.42;67.72;102195.31;1706285;83;21725;-60
2022/11/26 11:01:19;;;;;;;6.58;5.87;;;;;;;7.41;67.82;102197.47;1722507;83;21052;-61
2022/11/26 11:03:50;;;;;;;5.97;5.35;;;;;;;7.43;67.92;102206.13;1723613;83;21060;-60
2022/11/26 11:06:27;;;;;;;6.25;5.65;;;;;;;7.42;67.87;102210.84;1715456;83;21033;-60
2022/11/26 11:08:54;;;;;;;6.42;5.28;;;;;;;7.42;68.12;102206.96;1717209;81;21015;-60
2022/11/26 11:11:28;;;;;;;7.33;6.22;;;;;;;7.42;67.99;102208.26;1666676;83;21093;-61
2022/11/26 11:13:55;;;;;;;7.03;6.33;;;;;;;7.42;68.13;102203.08;1694503;81;21075;-61
2022/11/26 11:16:31;;;;;;;6.80;5.97;;;;;;;7.45;68.18;102207.02;1703968;81;21034;-60
2022/11/26 11:19:01;;;;;;;7.12;5.95;;;;;;;7.47;68.18;102204.03;1714045;82;21158;-60
2022/11/26 11:21:35;;;;;;;6.10;5.28;;;;;;;7.49;67.91;102202.74;1704485;82;21059;-61
2022/11/26 11:24:17;;;;;;;7.53;6.83;;;;;;;7.50;67.86;102210.52;1671307;84;21014;-62
2022/11/26 11:26:46;;;;;;;7.25;6.55;;;;;;;7.50;67.75;102207.94;1672799;83;21046;-61
2022/11/26 11:29:36;;;;;;;6.70;5.45;;;;;;;7.48;67.74;102207.50;1686788;83;20998;-60
2022/11/26 11:32:05;;;;;;;5.83;5.25;;;;;;;7.46;67.85;102217.81;1678828;84;21050;-61
2022/11/26 11:34:43;;;;;;;6.42;5.60;;;;;;;7.44;67.98;102219.51;1658094;85;21066;-61
2022/11/26 11:40:06;;;;;;;6.70;5.85;;;;;;;7.47;67.69;102229.92;1542102;91;21127;-61
2022/11/26 11:42:32;;;;;;;7.60;6.30;;;;;;;7.46;67.68;102226.87;1535721;91;21108;-60